Time;durP1;ratioP1;P1;durP2;ratioP2;P2;SDS_P1;SDS_P2;PMS_P1;PMS_P2;Temp;Humidity;BMP_temperature;BMP_pressure;BME280_temperature;BME280_humidity;BME280_pressure;Samples;Min_cycle;Max_cycle;Signal;HPM_P1;HPM_P2
2023/04/30 00:02:24;;;;;;;12.57;7.60;;;13.30;99.90;;;;;;5052850;28;20032;-75
2023/04/30 00:04:50;;;;;;;15.95;8.90;;;13.30;99.90;;;;;;5052403;28;20037;-75
2023/04/30 00:07:15;;;;;;;12.98;8.73;;;13.30;99.90;;;;;;5052541;28;20033;-75
2023/04/30 00:09:41;;;;;;;12.40;8.93;;;13.30;99.90;;;;;;5034513;28;20386;-75
2023/04/30 00:12:07;;;;;;;11.45;7.65;;;13.30;99.90;;;;;;5051968;28;20040;-75
2023/04/30 00:14:33;;;;;;;11.60;7.70;;;13.30;99.90;;;;;;5052736;28;20028;-75
2023/04/30 00:16:59;;;;;;;10.95;7.15;;;13.20;99.90;;;;;;5052163;28;20028;-79
2023/04/30 00:19:25;;;;;;;9.15;5.90;;;13.30;99.90;;;;;;5052650;28;20378;-76
2023/04/30 00:21:50;;;;;;;13.48;7.05;;;13.30;99.90;;;;;;5053059;28;20115;-75
2023/04/30 00:24:16;;;;;;;9.52;5.22;;;13.20;99.90;;;;;;5052266;28;20025;-76
2023/04/30 00:26:42;;;;;;;11.13;6.72;;;13.20;99.90;;;;;;5052597;28;20105;-76
2023/04/30 00:29:09;;;;;;;16.52;10.13;;;13.10;99.90;;;;;;5052319;28;20041;-76
2023/04/30 00:31:35;;;;;;;16.05;10.43;;;13.10;99.90;;;;;;5052623;28;20041;-76
2023/04/30 00:34:00;;;;;;;17.27;10.52;;;13.10;99.90;;;;;;5049511;28;20388;-77
2023/04/30 00:36:26;;;;;;;16.77;10.27;;;13.10;99.90;;;;;;5052572;28;20032;-76
2023/04/30 00:38:52;;;;;;;12.15;9.27;;;13.10;99.90;;;;;;5052649;28;20432;-76
2023/04/30 00:41:18;;;;;;;15.43;9.43;;;13.10;99.90;;;;;;5052267;28;20140;-76
2023/04/30 00:43:45;;;;;;;14.23;9.32;;;13.10;99.90;;;;;;5052456;28;20062;-75
2023/04/30 00:46:11;;;;;;;13.43;9.43;;;13.20;99.90;;;;;;5051966;28;20040;-76
2023/04/30 00:48:37;;;;;;;17.20;10.13;;;13.10;99.90;;;;;;5052158;28;20029;-76
2023/04/30 00:51:04;;;;;;;15.63;9.80;;;13.10;99.90;;;;;;5051881;28;20041;-79
2023/04/30 00:53:30;;;;;;;14.93;10.55;;;13.10;99.90;;;;;;5052539;28;20060;-75
2023/04/30 00:55:56;;;;;;;16.67;11.43;;;13.10;99.90;;;;;;5052369;28;20036;-76
2023/04/30 00:58:22;;;;;;;14.73;10.98;;;13.10;99.90;;;;;;5051674;28;20017;-76
2023/04/30 01:00:48;;;;;;;16.48;10.93;;;13.00;99.90;;;;;;5051855;28;20021;-76
2023/04/30 01:03:14;;;;;;;17.48;11.45;;;13.00;99.90;;;;;;5050508;28;20100;-76
2023/04/30 01:05:41;;;;;;;17.38;11.10;;;13.00;99.90;;;;;;5052258;28;20057;-78
2023/04/30 01:08:07;;;;;;;17.15;11.65;;;12.90;99.90;;;;;;5051876;28;20062;-80
2023/04/30 01:10:55;;;;;;;16.40;12.00;;;13.00;99.90;;;;;;5053008;28;20036;-81
2023/04/30 01:13:49;;;;;;;18.77;12.82;;;13.00;99.90;;;;;;5053931;28;20064;-81
2023/04/30 01:16:22;;;;;;;19.58;13.40;;;12.90;99.90;;;;;;5054059;28;20052;-78
2023/04/30 01:18:55;;;;;;;16.27;12.27;;;12.90;99.90;;;;;;5052360;28;20025;-77
2023/04/30 01:21:21;;;;;;;;;;;12.80;99.90;;;;;;5052545;28;20382;-76
2023/04/30 01:23:59;;;;;;;17.30;12.32;;;12.80;99.90;;;;;;5053352;28;20274;-75
2023/04/30 01:26:51;;;;;;;15.63;11.18;;;12.80;99.90;;;;;;5053872;28;20029;-76
2023/04/30 01:29:19;;;;;;;18.83;13.82;;;12.80;99.90;;;;;;5053355;28;20049;-76
2023/04/30 01:31:45;;;;;;;20.73;13.15;;;12.80;99.90;;;;;;5053993;28;20106;-76
2023/04/30 01:34:11;;;;;;;25.77;14.23;;;12.80;99.90;;;;;;5056302;28;20462;-77
2023/04/30 01:36:42;;;;;;;20.20;14.15;;;12.70;99.90;;;;;;5058486;28;20025;-75
2023/04/30 01:39:46;;;;;;;22.75;15.15;;;12.70;99.90;;;;;;5059946;28;20100;-75
2023/04/30 01:42:48;;;;;;;22.63;15.00;;;12.60;99.90;;;;;;5027644;28;20474;-75
2023/04/30 01:45:21;;;;;;;20.83;14.47;;;12.60;99.90;;;;;;5056058;28;20477;-74
2023/04/30 01:47:51;;;;;;;20.42;14.07;;;12.60;99.90;;;;;;5056280;28;20025;-75
2023/04/30 01:50:35;;;;;;;22.33;14.90;;;12.50;99.90;;;;;;5055480;28;20025;-75
2023/04/30 01:53:04;;;;;;;21.23;14.30;;;12.50;99.90;;;;;;5055729;28;20033;-76
2023/04/30 01:56:03;;;;;;;21.00;13.82;;;12.60;99.90;;;;;;5037566;28;20083;-76
2023/04/30 01:58:30;;;;;;;21.20;14.35;;;12.60;99.90;;;;;;5054995;28;20029;-76
2023/04/30 02:00:56;;;;;;;25.13;16.33;;;12.60;99.90;;;;;;5055348;28;20051;-75
2023/04/30 02:03:22;;;;;;;26.55;16.88;;;12.60;99.90;;;;;;5037003;28;20029;-75
2023/04/30 02:05:48;;;;;;;28.45;17.70;;;12.60;99.90;;;;;;5055326;28;20029;-75
2023/04/30 02:08:14;;;;;;;28.85;16.67;;;12.60;99.90;;;;;;5055049;28;20029;-76
2023/04/30 02:10:40;;;;;;;27.02;15.80;;;12.50;99.90;;;;;;5055287;28;20021;-75
2023/04/30 02:13:06;;;;;;;23.55;15.43;;;12.50;99.90;;;;;;5055240;28;20466;-78
2023/04/30 02:15:31;;;;;;;22.40;15.30;;;12.40;99.90;;;;;;5055117;28;20025;-75
2023/04/30 02:17:57;;;;;;;27.92;16.67;;;12.40;99.90;;;;;;5055507;28;20021;-75
2023/04/30 02:20:23;;;;;;;25.58;15.57;;;12.40;99.90;;;;;;5054610;28;20039;-76
2023/04/30 02:22:48;;;;;;;24.00;14.48;;;12.50;99.90;;;;;;5055200;28;20414;-75
2023/04/30 02:25:14;;;;;;;24.23;14.15;;;12.40;99.90;;;;;;5054838;28;20454;-75
2023/04/30 02:27:40;;;;;;;21.65;14.10;;;12.50;99.90;;;;;;5055152;28;20028;-76
2023/04/30 02:30:06;;;;;;;20.92;13.38;;;12.50;99.90;;;;;;5055229;28;20458;-75
2023/04/30 02:32:32;;;;;;;19.30;12.63;;;12.40;99.90;;;;;;5054564;28;20044;-76
2023/04/30 02:34:58;;;;;;;20.85;12.40;;;12.50;99.90;;;;;;5054846;28;20387;-76
2023/04/30 02:37:24;;;;;;;19.38;12.65;;;12.30;99.90;;;;;;5054249;28;20043;-81
2023/04/30 02:39:50;;;;;;;15.90;10.88;;;12.40;99.90;;;;;;5037199;28;20136;-83
2023/04/30 02:42:16;;;;;;;17.88;11.43;;;12.40;99.90;;;;;;5054533;28;20111;-83
2023/04/30 02:44:42;;;;;;;16.80;10.32;;;12.40;99.90;;;;;;5054957;28;20108;-84
2023/04/30 02:47:08;;;;;;;15.50;9.48;;;12.40;99.90;;;;;;5053751;28;20528;-86
2023/04/30 02:49:34;;;;;;;14.82;9.23;;;12.50;99.90;;;;;;5053459;28;20033;-84
2023/04/30 02:52:00;;;;;;;18.88;11.38;;;12.40;99.90;;;;;;5036552;28;20399;-83
2023/04/30 02:54:26;;;;;;;17.00;9.55;;;12.40;99.90;;;;;;5054043;28;20098;-82
2023/04/30 02:56:52;;;;;;;18.73;10.10;;;12.40;99.90;;;;;;5055209;28;20450;-80
2023/04/30 02:59:18;;;;;;;18.35;10.43;;;12.40;99.90;;;;;;5054153;28;20486;-80
2023/04/30 03:01:43;;;;;;;13.55;8.70;;;12.30;99.90;;;;;;5054922;28;20075;-77
2023/04/30 03:04:09;;;;;;;14.48;8.93;;;12.30;99.90;;;;;;5054163;28;20450;-79
2023/04/30 03:06:35;;;;;;;15.30;9.40;;;12.30;99.90;;;;;;5036299;28;20021;-77
2023/04/30 03:09:01;;;;;;;14.45;8.85;;;12.30;99.90;;;;;;5054323;28;20580;-76
2023/04/30 03:11:27;;;;;;;14.40;8.65;;;12.40;99.90;;;;;;5035758;28;20079;-77
2023/04/30 03:13:52;;;;;;;12.57;8.30;;;12.30;99.90;;;;;;5054420;28;20106;-76
2023/04/30 03:16:20;;;;;;;12.85;7.43;;;12.30;99.90;;;;;;5053482;28;20029;-76
2023/04/30 03:18:48;;;;;;;11.60;7.45;;;12.30;99.90;;;;;;5054154;28;20494;-75
2023/04/30 03:21:14;;;;;;;12.20;7.68;;;12.30;99.90;;;;;;5053709;28;20480;-76
2023/04/30 03:23:40;;;;;;;12.18;6.65;;;12.30;99.90;;;;;;5054015;28;20056;-76
2023/04/30 03:26:07;;;;;;;12.27;8.18;;;12.30;99.90;;;;;;5054152;28;20044;-76
2023/04/30 03:28:33;;;;;;;11.82;7.03;;;12.30;99.90;;;;;;5053211;28;20521;-76
2023/04/30 03:30:59;;;;;;;11.32;7.13;;;12.30;99.90;;;;;;5053792;28;20033;-75
2023/04/30 03:33:26;;;;;;;13.55;8.20;;;12.30;99.90;;;;;;5035179;28;20128;-75
2023/04/30 03:35:52;;;;;;;15.05;8.60;;;12.30;99.90;;;;;;5053731;28;20036;-75
2023/04/30 03:38:18;;;;;;;13.65;8.18;;;12.30;99.90;;;;;;5053064;28;20033;-76
2023/04/30 03:40:43;;;;;;;12.90;8.23;;;12.30;99.90;;;;;;5036194;28;20035;-75
2023/04/30 03:43:09;;;;;;;13.35;8.07;;;12.30;99.90;;;;;;5053740;28;20396;-75
2023/04/30 03:45:35;;;;;;;11.90;7.22;;;12.30;99.90;;;;;;5052842;28;20033;-75
2023/04/30 03:48:01;;;;;;;15.55;8.63;;;12.30;99.90;;;;;;5053640;28;20029;-75
2023/04/30 03:50:26;;;;;;;12.07;7.60;;;12.20;99.90;;;;;;5052882;28;20032;-75
2023/04/30 03:52:52;;;;;;;11.20;6.82;;;12.20;99.90;;;;;;5053214;28;20035;-75
2023/04/30 03:55:18;;;;;;;10.25;6.55;;;12.30;99.90;;;;;;5035039;28;20091;-75
2023/04/30 03:57:44;;;;;;;11.45;7.05;;;12.20;99.90;;;;;;5053344;28;20024;-75
2023/04/30 04:00:12;;;;;;;9.18;6.50;;;12.20;99.90;;;;;;5053288;28;20459;-75
2023/04/30 04:02:38;;;;;;;10.35;6.95;;;12.20;99.90;;;;;;5052295;28;20029;-75
2023/04/30 04:05:04;;;;;;;10.15;6.15;;;12.20;99.90;;;;;;5053264;28;20079;-75
2023/04/30 04:07:30;;;;;;;8.35;6.07;;;12.20;99.90;;;;;;5052750;28;20033;-75
2023/04/30 04:09:56;;;;;;;12.88;7.50;;;12.20;99.90;;;;;;5053208;28;20025;-74
2023/04/30 04:12:22;;;;;;;12.10;6.75;;;12.20;99.90;;;;;;5052259;28;20029;-76
2023/04/30 04:14:48;;;;;;;9.43;6.80;;;12.20;99.90;;;;;;5053013;28;20107;-75
2023/04/30 04:17:13;;;;;;;11.43;6.88;;;12.20;99.90;;;;;;5052894;28;20065;-77
2023/04/30 04:19:39;;;;;;;12.45;7.10;;;12.20;99.90;;;;;;5052578;28;20037;-75
2023/04/30 04:22:05;;;;;;;11.95;7.35;;;12.20;99.90;;;;;;5052798;28;20040;-76
2023/04/30 04:24:32;;;;;;;12.50;7.05;;;12.30;99.90;;;;;;5052720;28;20527;-76
2023/04/30 04:26:58;;;;;;;11.10;6.93;;;12.30;99.90;;;;;;5052326;28;20033;-76
2023/04/30 04:29:24;;;;;;;13.65;7.30;;;12.20;99.90;;;;;;5052334;28;20064;-75
2023/04/30 04:31:50;;;;;;;12.90;6.75;;;12.20;99.90;;;;;;5052942;28;20111;-75
2023/04/30 04:34:16;;;;;;;8.02;6.05;;;12.20;99.90;;;;;;5034601;28;20029;-76
2023/04/30 04:36:42;;;;;;;9.57;6.60;;;12.20;99.90;;;;;;5052328;28;20025;-75
2023/04/30 04:39:08;;;;;;;9.98;6.43;;;12.20;99.90;;;;;;5052768;28;20029;-75
2023/04/30 04:41:36;;;;;;;7.90;5.68;;;12.20;99.90;;;;;;5052118;28;20375;-75
2023/04/30 04:44:03;;;;;;;8.35;5.85;;;12.20;99.90;;;;;;5052158;28;20036;-76
2023/04/30 04:46:30;;;;;;;10.07;6.13;;;12.20;99.90;;;;;;5033778;28;20029;-76
2023/04/30 04:48:57;;;;;;;10.27;6.50;;;12.20;99.90;;;;;;5052283;28;20059;-76
2023/04/30 04:51:23;;;;;;;8.75;6.53;;;12.20;99.90;;;;;;5051538;28;20496;-77
2023/04/30 04:53:49;;;;;;;9.93;6.20;;;12.20;99.90;;;;;;5052899;28;20467;-75
2023/04/30 04:56:15;;;;;;;9.45;6.53;;;12.20;99.90;;;;;;5052370;28;20029;-76
2023/04/30 04:58:42;;;;;;;9.10;6.32;;;12.20;99.90;;;;;;5051667;28;20029;-75
2023/04/30 05:01:08;;;;;;;9.13;6.00;;;12.20;99.90;;;;;;5052147;28;20056;-75
2023/04/30 05:03:37;;;;;;;10.00;5.85;;;12.20;99.90;;;;;;5034051;28;20025;-76
2023/04/30 05:06:04;;;;;;;10.18;6.32;;;12.20;99.90;;;;;;5051903;28;20032;-75
2023/04/30 05:08:30;;;;;;;10.98;6.28;;;12.20;99.90;;;;;;5051484;28;20439;-77
2023/04/30 05:10:56;;;;;;;10.30;6.43;;;12.20;99.90;;;;;;5052332;28;20425;-76
2023/04/30 05:13:22;;;;;;;11.77;7.03;;;12.20;99.90;;;;;;5053057;28;20029;-75
2023/04/30 05:15:52;;;;;;;9.00;6.38;;;12.30;99.90;;;;;;5056709;28;20568;-75
2023/04/30 05:18:18;;;;;;;12.40;6.18;;;12.30;99.90;;;;;;5056436;28;20466;-77
2023/04/30 05:20:43;;;;;;;10.48;6.75;;;12.30;99.90;;;;;;5056152;28;20029;-75
2023/04/30 05:23:09;;;;;;;11.95;6.20;;;12.30;99.90;;;;;;5056454;28;20115;-75
2023/04/30 05:25:35;;;;;;;8.43;4.78;;;12.30;99.90;;;;;;5055756;28;20458;-75
2023/04/30 05:28:02;;;;;;;6.43;3.65;;;12.30;99.90;;;;;;5056244;28;20085;-75
2023/04/30 05:30:28;;;;;;;4.55;3.08;;;12.40;99.90;;;;;;5055676;28;20029;-75
2023/04/30 05:32:55;;;;;;;3.35;2.28;;;12.40;99.90;;;;;;5056142;28;20088;-76
2023/04/30 05:35:21;;;;;;;2.28;1.80;;;12.40;99.90;;;;;;5055487;28;20124;-78
2023/04/30 05:37:47;;;;;;;2.35;1.67;;;12.50;99.90;;;;;;5056080;28;20025;-75
2023/04/30 05:40:13;;;;;;;2.90;1.38;;;12.50;99.90;;;;;;5055747;28;20032;-75
2023/04/30 05:42:42;;;;;;;1.77;1.25;;;12.50;99.90;;;;;;5055404;28;20044;-76
2023/04/30 05:45:08;;;;;;;1.40;1.30;;;12.40;99.90;;;;;;5056018;28;20483;-76
2023/04/30 05:47:34;;;;;;;1.63;1.40;;;12.40;99.90;;;;;;5037632;28;20059;-76
2023/04/30 05:50:00;;;;;;;1.40;1.30;;;12.40;99.90;;;;;;5055637;28;20067;-76
2023/04/30 05:52:25;;;;;;;1.40;1.30;;;12.50;99.90;;;;;;5054858;28;20425;-76
2023/04/30 05:54:51;;;;;;;1.50;1.40;;;12.50;99.90;;;;;;5037531;28;20021;-75
2023/04/30 05:57:17;;;;;;;3.25;1.40;;;12.50;99.90;;;;;;5055440;28;20029;-75
2023/04/30 05:59:43;;;;;;;1.52;1.42;;;12.50;99.90;;;;;;5037390;28;20398;-75
2023/04/30 06:02:08;;;;;;;2.20;1.98;;;12.50;99.90;;;;;;5055674;28;20029;-75
2023/04/30 06:04:35;;;;;;;4.05;2.10;;;12.50;99.90;;;;;;5037013;28;20025;-76
2023/04/30 06:07:00;;;;;;;2.40;2.20;;;12.50;99.90;;;;;;5055403;28;20113;-76
2023/04/30 06:09:26;;;;;;;3.15;2.58;;;12.50;99.90;;;;;;5054984;28;20048;-76
2023/04/30 06:11:52;;;;;;;2.47;2.28;;;12.50;99.90;;;;;;5055472;28;20044;-76
2023/04/30 06:14:19;;;;;;;3.70;3.28;;;12.60;99.90;;;;;;5055318;28;20087;-75
2023/04/30 06:16:45;;;;;;;4.47;2.45;;;12.60;99.90;;;;;;5054943;28;20068;-76
2023/04/30 06:19:11;;;;;;;3.17;2.70;;;12.60;99.90;;;;;;5055315;28;20029;-75
2023/04/30 06:21:37;;;;;;;7.60;3.15;;;12.70;99.90;;;;;;5036776;28;20063;-75
2023/04/30 06:24:03;;;;;;;4.78;3.25;;;12.70;99.90;;;;;;5054673;28;20032;-75
2023/04/30 06:26:29;;;;;;;3.00;2.70;;;12.70;99.90;;;;;;5054999;28;20199;-76
2023/04/30 06:28:55;;;;;;;3.45;2.50;;;12.70;99.90;;;;;;5055117;28;20473;-75
2023/04/30 06:31:21;;;;;;;3.72;2.88;;;12.80;99.90;;;;;;5055110;28;20086;-75
2023/04/30 06:33:47;;;;;;;3.33;2.80;;;12.90;99.90;;;;;;5054482;28;20064;-74
2023/04/30 06:36:13;;;;;;;3.00;2.75;;;12.90;99.90;;;;;;5054763;28;20067;-75
2023/04/30 06:38:40;;;;;;;3.20;2.90;;;12.90;99.90;;;;;;5054413;28;20033;-75
2023/04/30 06:41:05;;;;;;;2.28;2.08;;;12.90;99.90;;;;;;5054837;28;20062;-75
2023/04/30 06:43:31;;;;;;;3.20;2.90;;;13.00;99.90;;;;;;5054315;28;20025;-77
2023/04/30 06:45:57;;;;;;;4.90;3.05;;;13.00;99.90;;;;;;5054576;28;20036;-76
2023/04/30 06:48:23;;;;;;;3.30;3.00;;;13.00;99.90;;;;;;5054586;28;20025;-74
2023/04/30 06:50:49;;;;;;;3.53;3.22;;;13.00;99.90;;;;;;5036473;28;20033;-75
2023/04/30 06:53:15;;;;;;;3.40;3.10;;;13.00;99.90;;;;;;5036368;28;20150;-75
2023/04/30 06:55:41;;;;;;;3.72;2.95;;;13.10;99.90;;;;;;5053969;28;20063;-75
2023/04/30 06:58:07;;;;;;;3.05;2.75;;;13.10;99.90;;;;;;5054720;28;20088;-75
2023/04/30 07:00:34;;;;;;;3.10;2.80;;;13.20;99.90;;;;;;5053934;28;20036;-76
2023/04/30 07:03:02;;;;;;;3.53;2.70;;;13.20;99.90;;;;;;5054607;28;20124;-75
2023/04/30 07:05:29;;;;;;;3.20;2.80;;;13.20;99.90;;;;;;5053872;28;20355;-76
2023/04/30 07:07:56;;;;;;;3.20;2.90;;;13.30;99.90;;;;;;5054097;28;20032;-75
2023/04/30 07:10:21;;;;;;;3.08;2.78;;;13.40;99.90;;;;;;5053836;28;20028;-76
2023/04/30 07:12:47;;;;;;;2.88;2.60;;;13.40;99.90;;;;;;5035850;28;20343;-76
2023/04/30 07:15:13;;;;;;;2.88;2.50;;;13.50;99.90;;;;;;5036415;28;20082;-75
2023/04/30 07:17:40;;;;;;;2.50;2.30;;;13.50;99.90;;;;;;5053572;28;20065;-74
2023/04/30 07:20:07;;;;;;;2.83;2.20;;;13.60;99.90;;;;;;5053964;28;20033;-74
2023/04/30 07:22:33;;;;;;;2.40;2.20;;;13.60;99.90;;;;;;5053474;28;20032;-74
2023/04/30 07:24:59;;;;;;;2.38;1.98;;;13.70;99.90;;;;;;5054145;28;20021;-76
2023/04/30 07:27:27;;;;;;;2.88;2.38;;;13.80;99.90;;;;;;5054099;28;20033;-75
2023/04/30 07:29:53;;;;;;;2.47;1.90;;;13.80;99.90;;;;;;5053790;28;20175;-76
2023/04/30 07:32:19;;;;;;;1.80;1.70;;;13.80;99.90;;;;;;5047855;28;20075;-75
2023/04/30 07:34:45;;;;;;;2.38;2.17;;;13.90;99.90;;;;;;5044357;28;20065;-75
2023/04/30 07:37:12;;;;;;;3.50;2.28;;;13.90;99.90;;;;;;5042007;28;20025;-75
2023/04/30 07:39:38;;;;;;;2.10;1.70;;;14.00;99.90;;;;;;5035774;28;20053;-74
2023/04/30 07:42:05;;;;;;;2.58;2.08;;;14.00;99.90;;;;;;5033754;28;20021;-73
2023/04/30 07:44:31;;;;;;;3.15;2.22;;;14.10;99.90;;;;;;5033268;28;20021;-75
2023/04/30 07:46:57;;;;;;;2.28;2.08;;;14.20;99.90;;;;;;5033964;28;20028;-75
2023/04/30 07:49:24;;;;;;;1.90;1.80;;;14.30;99.90;;;;;;5033500;28;20026;-75
2023/04/30 07:51:50;;;;;;;3.33;1.90;;;14.20;99.90;;;;;;5033199;28;20044;-75
2023/04/30 07:54:15;;;;;;;3.33;2.15;;;14.30;99.90;;;;;;5033654;28;20029;-75
2023/04/30 07:56:41;;;;;;;2.47;2.08;;;14.50;99.90;;;;;;5033053;28;20033;-75
2023/04/30 07:59:07;;;;;;;2.38;1.85;;;14.60;99.90;;;;;;5033339;28;20071;-74
2023/04/30 08:01:33;;;;;;;2.60;2.00;;;14.80;99.90;;;;;;5032963;28;20426;-76
2023/04/30 08:03:58;;;;;;;5.13;1.90;;;14.80;99.90;;;;;;5033577;28;20056;-75
2023/04/30 08:06:26;;;;;;;7.03;2.28;;;14.70;99.90;;;;;;5033493;28;20031;-74
2023/04/30 08:08:52;;;;;;;2.13;1.92;;;14.90;99.90;;;;;;5032753;28;20036;-74
2023/04/30 08:11:18;;;;;;;2.10;1.90;;;15.10;99.90;;;;;;5032821;28;20097;-75
2023/04/30 08:13:44;;;;;;;2.75;2.20;;;15.20;99.90;;;;;;5032687;28;20089;-75
2023/04/30 08:16:09;;;;;;;3.10;2.33;;;15.10;99.90;;;;;;5033432;28;20025;-75
2023/04/30 08:18:37;;;;;;;3.13;2.42;;;15.10;99.90;;;;;;5032522;28;20025;-74
2023/04/30 08:21:04;;;;;;;2.70;2.25;;;15.20;99.90;;;;;;5033091;28;20061;-73
2023/04/30 08:23:30;;;;;;;2.83;2.42;;;15.30;99.90;;;;;;5032943;28;20021;-75
2023/04/30 08:25:56;;;;;;;2.15;1.95;;;15.30;99.90;;;;;;5032639;28;20112;-74
2023/04/30 08:28:21;;;;;;;2.10;1.73;;;15.30;99.90;;;;;;5032533;28;20054;-74
2023/04/30 08:30:47;;;;;;;2.17;1.80;;;15.40;99.90;;;;;;5032680;28;20447;-74
2023/04/30 08:33:13;;;;;;;1.75;1.30;;;15.40;99.90;;;;;;5032943;28;20091;-74
2023/04/30 08:35:38;;;;;;;2.40;1.45;;;15.50;99.90;;;;;;5032189;28;20026;-75
2023/04/30 08:38:04;;;;;;;1.88;1.25;;;15.50;99.90;;;;;;5032694;28;20040;-75
2023/04/30 08:40:34;;;;;;;2.78;1.50;;;15.60;99.90;;;;;;5015054;28;20036;-75
2023/04/30 08:43:08;;;;;;;2.63;1.20;;;15.80;99.90;;;;;;5032333;28;20060;-74
2023/04/30 08:45:35;;;;;;;1.48;1.38;;;15.90;99.90;;;;;;5032327;28;20482;-77
2023/04/30 08:48:03;;;;;;;2.72;1.45;;;15.90;99.90;;;;;;5032810;28;20104;-74
2023/04/30 08:50:30;;;;;;;3.97;1.40;;;16.10;99.90;;;;;;5015867;28;20029;-75
2023/04/30 08:53:00;;;;;;;5.40;1.50;;;16.00;99.90;;;;;;5038112;28;20025;-75
2023/04/30 08:55:26;;;;;;;2.90;1.27;;;16.00;99.90;;;;;;5021618;28;20103;-76
2023/04/30 08:57:52;;;;;;;1.98;1.13;;;16.00;99.90;;;;;;5019851;28;20470;-75
2023/04/30 09:00:19;;;;;;;1.00;0.80;;;15.90;99.90;;;;;;5037913;28;20025;-76
2023/04/30 09:02:47;;;;;;;1.45;1.00;;;15.80;99.90;;;;;;5038094;28;20029;-76
2023/04/30 09:05:14;;;;;;;1.17;0.90;;;15.70;99.90;;;;;;5037944;28;20064;-75
2023/04/30 09:07:41;;;;;;;1.40;1.13;;;15.80;99.90;;;;;;5022236;28;20021;-75
2023/04/30 09:10:18;;;;;;;3.45;1.30;;;15.80;99.90;;;;;;5040859;28;20038;-76
2023/04/30 09:13:04;;;;;;;2.05;1.30;;;16.00;99.90;;;;;;5039360;28;20037;-76
2023/04/30 09:15:31;;;;;;;2.35;1.55;;;16.20;99.90;;;;;;5035827;28;20025;-77
2023/04/30 09:18:16;;;;;;;3.55;1.40;;;16.30;99.90;;;;;;5032882;28;20052;-77
2023/04/30 09:21:02;;;;;;;7.88;1.42;;;16.50;99.90;;;;;;5032313;28;20034;-76
2023/04/30 09:23:28;;;;;;;3.47;1.15;;;16.60;99.90;;;;;;5033111;28;20422;-76
2023/04/30 09:25:55;;;;;;;2.58;2.00;;;16.70;99.90;;;;;;5031756;28;20033;-77
2023/04/30 09:28:27;;;;;;;3.75;1.95;;;16.70;99.90;;;;;;5015131;28;20061;-76
2023/04/30 09:30:56;;;;;;;3.33;1.67;;;16.70;99.90;;;;;;5032205;28;20052;-77
2023/04/30 09:33:22;;;;;;;3.05;1.30;;;16.70;99.90;;;;;;5032890;28;20037;-77
2023/04/30 09:35:48;;;;;;;3.47;1.83;;;16.80;99.90;;;;;;5031777;28;20041;-77
2023/04/30 09:38:31;;;;;;;2.67;1.30;;;16.80;99.90;;;;;;5032983;28;20439;-76
2023/04/30 09:40:58;;;;;;;2.30;1.33;;;16.80;99.90;;;;;;5032464;28;20040;-76
2023/04/30 09:43:24;;;;;;;3.33;1.50;;;16.90;99.90;;;;;;5016261;28;20033;-76
2023/04/30 09:45:51;;;;;;;3.50;1.70;;;16.80;99.90;;;;;;5031869;28;20029;-77
2023/04/30 09:48:26;;;;;;;3.53;1.40;;;17.00;99.90;;;;;;5032168;28;20356;-75
2023/04/30 09:50:53;;;;;;;2.95;1.33;;;17.00;99.90;;;;;;5031902;28;20108;-76
2023/04/30 09:53:19;;;;;;;1.63;1.30;;;17.00;99.90;;;;;;5032058;28;20474;-77
2023/04/30 09:55:50;;;;;;;2.53;1.33;;;17.00;99.90;;;;;;5031674;28;20030;-76
2023/04/30 09:58:17;;;;;;;2.78;1.40;;;17.00;99.90;;;;;;5032321;28;20029;-77
2023/04/30 10:00:47;;;;;;;3.03;1.08;;;16.80;99.90;;;;;;5034949;28;20144;-77
2023/04/30 10:03:14;;;;;;;3.05;1.30;;;16.90;99.90;;;;;;5036024;28;20052;-77
2023/04/30 10:05:41;;;;;;;2.15;1.30;;;17.00;99.90;;;;;;5035251;28;20037;-77
2023/04/30 10:08:12;;;;;;;3.28;1.40;;;17.10;99.90;;;;;;5035736;28;20094;-77
2023/04/30 10:10:41;;;;;;;5.43;1.70;;;17.00;99.90;;;;;;5035208;28;20029;-78
2023/04/30 10:13:13;;;;;;;3.95;1.50;;;16.90;99.90;;;;;;5035323;28;20053;-76
2023/04/30 10:15:47;;;;;;;4.57;1.42;;;16.80;99.90;;;;;;5036239;28;20096;-78
2023/04/30 10:18:30;;;;;;;2.30;1.40;;;16.80;99.90;;;;;;5036393;28;20030;-76
2023/04/30 10:20:58;;;;;;;2.78;1.27;;;16.80;99.90;;;;;;5035882;28;20029;-77
2023/04/30 10:23:24;;;;;;;5.63;1.70;;;16.80;99.90;;;;;;5018512;28;20037;-76
2023/04/30 10:25:50;;;;;;;2.88;1.30;;;16.70;99.90;;;;;;5035774;28;20022;-77
2023/04/30 10:28:16;;;;;;;4.28;1.45;;;16.70;99.90;;;;;;5035920;28;20022;-77
2023/04/30 10:30:42;;;;;;;7.68;1.30;;;16.70;99.90;;;;;;5017838;28;20380;-78
2023/04/30 10:33:14;;;;;;;2.15;1.38;;;16.80;99.90;;;;;;5035685;28;20038;-77
2023/04/30 10:35:56;;;;;;;3.53;1.50;;;17.00;99.90;;;;;;5035973;28;20470;-78
2023/04/30 10:38:24;;;;;;;2.17;1.20;;;17.20;99.90;;;;;;5018115;28;20032;-76
2023/04/30 10:40:54;;;;;;;3.70;1.08;;;17.40;99.90;;;;;;5035377;28;20112;-77
2023/04/30 10:43:23;;;;;;;5.15;1.92;;;17.50;99.90;;;;;;5035744;28;20491;-77
2023/04/30 10:45:49;;;;;;;4.30;1.50;;;17.70;99.90;;;;;;5035676;28;20065;-77
2023/04/30 10:48:22;;;;;;;5.57;1.75;;;18.00;99.90;;;;;;5036662;28;20057;-77
2023/04/30 10:50:59;;;;;;;4.60;1.65;;;18.00;99.90;;;;;;5036337;28;20035;-78
2023/04/30 10:53:27;;;;;;;2.88;1.48;;;18.10;99.90;;;;;;5036333;28;20038;-77
2023/04/30 10:56:05;;;;;;;4.38;1.40;;;18.00;99.90;;;;;;5035550;28;20026;-77
2023/04/30 10:58:36;;;;;;;7.03;2.00;;;17.90;99.90;;;;;;5036232;28;20021;-76
2023/04/30 11:01:13;;;;;;;4.22;1.48;;;18.00;99.90;;;;;;5035305;28;20068;-77
2023/04/30 11:04:03;;;;;;;3.42;1.70;;;17.90;99.90;;;;;;5035918;28;20026;-78
2023/04/30 11:06:50;;;;;;;5.47;1.75;;;17.70;99.90;;;;;;5036262;28;20442;-76
2023/04/30 11:09:16;;;;;;;3.55;1.40;;;17.80;99.90;;;;;;5036201;28;20414;-77
2023/04/30 11:11:44;;;;;;;3.60;1.45;;;17.90;99.90;;;;;;5034266;28;20033;-78
2023/04/30 11:14:11;;;;;;;3.67;1.67;;;18.00;99.90;;;;;;5034882;28;20435;-77
2023/04/30 11:16:37;;;;;;;3.38;1.52;;;18.00;99.90;;;;;;5017828;28;20085;-76
2023/04/30 11:19:10;;;;;;;5.10;1.80;;;18.10;99.90;;;;;;5034820;28;20129;-77
2023/04/30 11:22:02;;;;;;;3.05;1.33;;;18.20;99.90;;;;;;5035515;28;20429;-77
2023/04/30 11:24:52;;;;;;;6.22;1.75;;;18.30;99.90;;;;;;5035324;28;20049;-77
2023/04/30 11:27:25;;;;;;;6.80;1.50;;;18.30;99.90;;;;;;5035129;28;20064;-77
2023/04/30 11:29:52;;;;;;;1.73;1.42;;;18.30;99.90;;;;;;5034477;28;20064;-77
2023/04/30 11:32:20;;;;;;;5.93;1.25;;;18.30;99.90;;;;;;5034272;28;20033;-77
2023/04/30 11:34:47;;;;;;;4.78;1.20;;;18.50;99.90;;;;;;5033811;28;20046;-78
2023/04/30 11:37:20;;;;;;;4.57;1.60;;;18.70;99.90;;;;;;5034340;28;20025;-77
2023/04/30 11:39:46;;;;;;;4.53;1.20;;;18.70;99.90;;;;;;5033351;28;20072;-78
2023/04/30 11:42:20;;;;;;;2.38;1.50;;;18.70;99.90;;;;;;5016199;28;20546;-77
2023/04/30 11:44:46;;;;;;;5.07;1.75;;;18.70;99.90;;;;;;5032991;28;20106;-78
2023/04/30 11:47:13;;;;;;;4.60;1.58;;;18.60;99.90;;;;;;5016069;28;20336;-76
2023/04/30 11:49:39;;;;;;;3.55;1.60;;;18.30;99.90;;;;;;5033533;28;20463;-77
2023/04/30 11:52:05;;;;;;;6.18;1.83;;;17.90;99.90;;;;;;5032785;28;20112;-77
2023/04/30 11:54:37;;;;;;;3.28;1.35;;;17.60;99.90;;;;;;5033607;28;20414;-76
2023/04/30 11:57:03;;;;;;;2.80;1.52;;;17.50;99.90;;;;;;5033136;28;20033;-77
2023/04/30 11:59:39;;;;;;;3.15;1.67;;;17.40;99.90;;;;;;5033516;28;20501;-76
2023/04/30 12:02:06;;;;;;;3.00;1.67;;;17.20;99.90;;;;;;5032990;28;20430;-76
2023/04/30 12:04:31;;;;;;;4.18;1.77;;;17.20;99.90;;;;;;5033583;28;20025;-76
2023/04/30 12:06:59;;;;;;;2.47;1.40;;;17.10;99.90;;;;;;5032711;28;20104;-76
2023/04/30 12:09:25;;;;;;;3.03;1.00;;;17.10;99.90;;;;;;5033609;28;20171;-77
2023/04/30 12:11:50;;;;;;;2.72;1.10;;;17.00;99.90;;;;;;5032574;28;20112;-77
2023/04/30 12:14:16;;;;;;;2.50;1.20;;;16.90;99.90;;;;;;5033168;28;20025;-77
2023/04/30 12:16:49;;;;;;;3.88;1.30;;;16.80;99.90;;;;;;5033564;28;20032;-77
2023/04/30 12:19:15;;;;;;;;;;;16.80;99.90;;;;;;5033681;28;20383;-76
2023/04/30 12:21:46;;;;;;;3.08;1.08;;;16.80;99.90;;;;;;5032812;28;19905;-76
2023/04/30 12:24:16;;;;;;;2.58;0.90;;;16.90;99.90;;;;;;5037595;28;20024;-76
2023/04/30 12:26:42;;;;;;;3.63;1.10;;;16.90;99.90;;;;;;5052493;28;20036;-77
2023/04/30 12:29:10;;;;;;;2.33;1.13;;;16.80;99.90;;;;;;5052066;28;20095;-75
2023/04/30 12:31:37;;;;;;;1.63;1.17;;;16.80;99.90;;;;;;5052892;28;20120;-78
2023/04/30 12:34:08;;;;;;;3.40;1.40;;;16.90;99.90;;;;;;5052434;28;20036;-78
2023/04/30 12:36:37;;;;;;;3.85;1.30;;;16.80;99.90;;;;;;5052974;28;20490;-78
2023/04/30 12:39:07;;;;;;;4.47;1.10;;;17.00;99.90;;;;;;5051998;28;20023;-78
2023/04/30 12:41:44;;;;;;;1.95;1.38;;;17.30;99.90;;;;;;5052897;28;20036;-78
2023/04/30 12:44:21;;;;;;;1.77;1.08;;;17.60;99.90;;;;;;5052102;28;20052;-78
2023/04/30 12:46:49;;;;;;;2.90;1.15;;;17.90;99.90;;;;;;5052352;28;20021;-78
2023/04/30 12:49:33;;;;;;;4.13;1.63;;;18.10;99.90;;;;;;5052688;28;20452;-78